Time;durP1;ratioP1;P1;durP2;ratioP2;P2;SDS_P1;SDS_P2;PMS_P1;PMS_P2;Temp;Humidity;BMP_temperature;BMP_pressure;BME280_temperature;BME280_humidity;BME280_pressure;Samples;Min_cycle;Max_cycle;Signal;HPM_P1;HPM_P2
2024/04/11 00:00:12;;;;;;;8.27;1.65;;;12.70;99.90;;;;;;5451487;26;19999;-78
2024/04/11 00:02:39;;;;;;;5.15;1.33;;;12.70;99.90;;;;;;5452256;26;19998;-78
2024/04/11 00:05:05;;;;;;;11.48;1.85;;;12.70;99.90;;;;;;5453583;26;19999;-78
2024/04/11 00:07:30;;;;;;;5.65;1.48;;;12.70;99.90;;;;;;5452243;26;19998;-77
2024/04/11 00:09:56;;;;;;;8.63;1.73;;;12.70;99.90;;;;;;5453461;26;20006;-77
2024/04/11 00:12:22;;;;;;;7.50;1.25;;;12.60;99.90;;;;;;5453606;26;20010;-80
2024/04/11 00:14:49;;;;;;;5.85;1.63;;;12.70;99.90;;;;;;5447716;26;20004;-76
2024/04/11 00:17:15;;;;;;;5.45;2.10;;;12.70;99.90;;;;;;5445586;26;20472;-77
2024/04/11 00:19:42;;;;;;;11.45;1.80;;;12.70;99.90;;;;;;5443480;26;20014;-79
2024/04/11 00:22:10;;;;;;;4.97;1.52;;;12.70;99.90;;;;;;5452522;26;20068;-78
2024/04/11 00:24:37;;;;;;;7.57;1.83;;;12.70;99.90;;;;;;5453676;26;20021;-77
2024/04/11 00:27:03;;;;;;;8.02;2.10;;;12.80;99.90;;;;;;5451998;26;20031;-81
2024/04/11 00:29:29;;;;;;;9.32;1.75;;;12.60;99.90;;;;;;5452996;26;20455;-81
2024/04/11 00:31:55;;;;;;;9.73;1.63;;;12.70;99.90;;;;;;5452928;26;19995;-77
2024/04/11 00:34:24;;;;;;;4.97;1.63;;;12.80;99.90;;;;;;5451567;26;20003;-82
2024/04/11 00:36:50;;;;;;;5.55;1.80;;;12.80;99.90;;;;;;5453511;26;20007;-77
2024/04/11 00:39:20;;;;;;;7.40;1.58;;;12.80;99.90;;;;;;5453121;26;20039;-79
2024/04/11 00:41:51;;;;;;;4.55;1.25;;;12.80;99.90;;;;;;5452863;26;20047;-80
2024/04/11 00:44:20;;;;;;;4.72;1.50;;;12.80;99.90;;;;;;5450187;26;20009;-81
2024/04/11 00:46:53;;;;;;;6.90;1.33;;;12.70;99.90;;;;;;5453192;26;20451;-76
2024/04/11 00:49:20;;;;;;;5.20;1.40;;;12.80;99.90;;;;;;5452906;26;20002;-77
2024/04/11 00:51:47;;;;;;;10.07;2.13;;;12.70;99.90;;;;;;5449951;26;19994;-78
2024/04/11 00:54:15;;;;;;;6.25;2.05;;;12.80;99.90;;;;;;5450771;26;20014;-76
2024/04/11 00:56:42;;;;;;;3.50;1.20;;;12.80;99.90;;;;;;5451006;26;20002;-77
2024/04/11 00:59:13;;;;;;;7.05;1.25;;;12.80;99.90;;;;;;5452707;26;20013;-78
2024/04/11 01:01:38;;;;;;;5.70;2.05;;;12.70;99.90;;;;;;5450318;26;20017;-77
2024/04/11 01:04:04;;;;;;;4.93;1.40;;;12.70;99.90;;;;;;5450721;26;20408;-78
2024/04/11 01:07:15;;;;;;;5.40;1.27;;;12.80;99.90;;;;;;5453132;26;20014;-76
2024/04/11 01:09:44;;;;;;;4.53;1.58;;;12.80;99.90;;;;;;5450220;26;19999;-77
2024/04/11 01:12:18;;;;;;;4.53;1.35;;;12.80;99.90;;;;;;5453233;26;20063;-79
2024/04/11 01:14:46;;;;;;;7.05;1.95;;;12.80;99.90;;;;;;5451417;26;20351;-77
2024/04/11 01:17:16;;;;;;;4.13;1.33;;;12.80;99.90;;;;;;5452122;26;20006;-76
2024/04/11 01:19:43;;;;;;;5.15;1.50;;;12.90;99.90;;;;;;5452034;26;19999;-78
2024/04/11 01:22:10;;;;;;;6.35;1.20;;;12.90;99.90;;;;;;5451950;26;20013;-76
2024/04/11 01:24:40;;;;;;;4.47;1.13;;;12.90;99.90;;;;;;5451569;26;20014;-77
2024/04/11 01:27:07;;;;;;;7.88;1.55;;;12.90;99.90;;;;;;5450540;26;20002;-77
2024/04/11 01:29:35;;;;;;;6.30;1.45;;;12.90;99.90;;;;;;5450907;26;20011;-83
2024/04/11 01:32:03;;;;;;;7.70;1.30;;;12.90;99.90;;;;;;5443980;26;20328;-77
2024/04/11 01:34:30;;;;;;;6.88;2.25;;;12.90;99.90;;;;;;5446155;26;20503;-78
2024/04/11 01:36:59;;;;;;;5.10;1.65;;;12.90;99.90;;;;;;5451969;26;20002;-77
2024/04/11 01:39:25;;;;;;;5.93;1.38;;;13.00;99.90;;;;;;5450236;26;20010;-77
2024/04/11 01:41:51;;;;;;;5.10;1.55;;;13.10;99.90;;;;;;5452792;26;20068;-80
2024/04/11 01:44:17;;;;;;;5.13;1.65;;;13.00;99.90;;;;;;5448113;26;20010;-77
2024/04/11 01:46:43;;;;;;;5.68;1.40;;;13.10;99.90;;;;;;5452254;26;19999;-78
2024/04/11 01:49:09;;;;;;;4.63;1.73;;;13.10;99.90;;;;;;5451353;26;20001;-77
2024/04/11 01:51:35;;;;;;;4.57;1.27;;;13.00;99.90;;;;;;5452033;26;20466;-76
2024/04/11 01:54:05;;;;;;;10.32;2.28;;;13.00;99.90;;;;;;5450420;26;20010;-77
2024/04/11 01:56:34;;;;;;;5.82;1.70;;;13.10;99.90;;;;;;5452188;26;19995;-78
2024/04/11 01:59:09;;;;;;;5.57;1.63;;;13.00;99.90;;;;;;5451277;26;20003;-78
2024/04/11 02:01:37;;;;;;;4.68;1.30;;;13.00;99.90;;;;;;5452380;26;20003;-76
2024/04/11 02:04:05;;;;;;;7.40;1.38;;;13.00;99.90;;;;;;5451158;26;20131;-76
2024/04/11 02:06:35;;;;;;;7.55;1.52;;;13.00;99.90;;;;;;5450775;26;20006;-76
2024/04/11 02:09:15;;;;;;;4.35;1.17;;;13.00;99.90;;;;;;5451175;26;19995;-78
2024/04/11 02:11:46;;;;;;;6.45;1.70;;;13.00;99.90;;;;;;5451726;26;20492;-79
2024/04/11 02:14:12;;;;;;;4.82;1.42;;;13.00;99.90;;;;;;5442563;26;20004;-80
2024/04/11 02:16:38;;;;;;;5.25;1.30;;;13.00;99.90;;;;;;5444901;26;20067;-77
2024/04/11 02:19:06;;;;;;;8.45;1.40;;;13.00;99.90;;;;;;5444070;26;20012;-76
2024/04/11 02:21:33;;;;;;;5.95;1.60;;;13.10;99.90;;;;;;5445879;26;20010;-79
2024/04/11 02:24:00;;;;;;;7.47;1.52;;;13.10;99.90;;;;;;5450105;26;20003;-77
2024/04/11 02:26:27;;;;;;;7.15;1.20;;;13.10;99.90;;;;;;5451149;26;20067;-77
2024/04/11 02:28:53;;;;;;;6.60;2.00;;;13.10;99.90;;;;;;5454976;26;20005;-76
2024/04/11 02:31:18;;;;;;;6.93;1.52;;;13.10;99.90;;;;;;5454826;26;19999;-76
2024/04/11 02:33:46;;;;;;;10.50;1.80;;;13.10;99.90;;;;;;5455311;26;20003;-77
2024/04/11 02:36:12;;;;;;;7.38;1.73;;;13.20;99.90;;;;;;5453462;26;19999;-76
2024/04/11 02:38:38;;;;;;;8.13;1.63;;;13.20;99.90;;;;;;5454918;26;19999;-76
2024/04/11 02:41:06;;;;;;;5.18;1.80;;;13.10;99.90;;;;;;5454487;26;20010;-76
2024/04/11 02:43:34;;;;;;;5.88;1.30;;;13.10;99.90;;;;;;5455018;26;20040;-77
2024/04/11 02:45:59;;;;;;;10.35;1.92;;;13.20;99.90;;;;;;5452116;26;20007;-76
2024/04/11 02:48:28;;;;;;;7.22;1.65;;;13.10;99.90;;;;;;5452404;26;19999;-76
2024/04/11 02:50:55;;;;;;;6.30;1.63;;;13.20;99.90;;;;;;5446330;26;20018;-76
2024/04/11 02:53:21;;;;;;;5.45;1.75;;;13.10;99.90;;;;;;5438783;26;20325;-79
2024/04/11 02:55:46;;;;;;;4.55;1.40;;;13.10;99.90;;;;;;5454580;26;20444;-83
2024/04/11 02:58:12;;;;;;;8.80;2.15;;;13.20;99.90;;;;;;5454491;26;20003;-77
2024/04/11 03:00:38;;;;;;;6.28;1.55;;;13.20;99.90;;;;;;5454392;26;20492;-83
2024/04/11 03:03:04;;;;;;;5.78;1.50;;;13.20;99.90;;;;;;5451622;26;20002;-77
2024/04/11 03:05:29;;;;;;;8.57;1.55;;;13.20;99.90;;;;;;5454108;26;20003;-77
2024/04/11 03:07:55;;;;;;;9.50;1.80;;;13.20;99.90;;;;;;5454903;26;20021;-78
2024/04/11 03:10:20;;;;;;;4.90;1.55;;;13.20;99.90;;;;;;5454357;26;20361;-77
2024/04/11 03:12:46;;;;;;;5.90;1.52;;;13.20;99.90;;;;;;5453584;26;20003;-81
2024/04/11 03:15:12;;;;;;;8.82;1.80;;;13.30;99.90;;;;;;5451990;26;20343;-79
2024/04/11 03:17:39;;;;;;;10.60;1.80;;;13.20;99.90;;;;;;5451438;26;20003;-78
2024/04/11 03:20:05;;;;;;;5.47;1.70;;;13.30;99.90;;;;;;5453950;26;20009;-77
2024/04/11 03:22:31;;;;;;;5.68;1.38;;;13.20;99.90;;;;;;5451672;26;20331;-78
2024/04/11 03:24:57;;;;;;;7.47;2.13;;;13.20;99.90;;;;;;5452700;26;19995;-78
2024/04/11 03:27:23;;;;;;;6.20;1.85;;;13.30;99.90;;;;;;5454175;26;20003;-79
2024/04/11 03:29:49;;;;;;;6.10;1.52;;;13.30;99.90;;;;;;5452588;26;19999;-79
2024/04/11 03:32:15;;;;;;;6.97;1.55;;;13.30;99.90;;;;;;5454604;26;20031;-77
2024/04/11 03:34:40;;;;;;;8.70;2.00;;;13.30;99.90;;;;;;5454141;26;20006;-79
2024/04/11 03:37:07;;;;;;;5.22;1.50;;;13.30;99.90;;;;;;5453979;26;19999;-85
2024/04/11 03:39:33;;;;;;;5.78;1.50;;;13.40;99.90;;;;;;5430081;26;20093;-79
2024/04/11 03:42:00;;;;;;;8.95;1.80;;;13.40;99.90;;;;;;5450516;26;20010;-77
2024/04/11 03:44:26;;;;;;;10.73;1.85;;;13.30;99.90;;;;;;5454109;26;20009;-78
2024/04/11 03:46:52;;;;;;;6.05;1.90;;;13.30;99.90;;;;;;5453295;26;19995;-81
2024/04/11 03:49:19;;;;;;;8.73;1.77;;;13.40;99.90;;;;;;5452690;26;20013;-82
2024/04/11 03:51:49;;;;;;;3.42;1.63;;;13.40;99.90;;;;;;5450953;26;20003;-78
2024/04/11 03:54:15;;;;;;;5.28;1.60;;;13.30;99.90;;;;;;5452343;26;20540;-84
2024/04/11 03:56:41;;;;;;;5.85;1.88;;;13.40;99.90;;;;;;5452814;26;20011;-77
2024/04/11 03:59:07;;;;;;;4.25;1.40;;;13.30;99.90;;;;;;5453474;26;20002;-78
2024/04/11 04:01:33;;;;;;;10.13;1.85;;;13.40;99.90;;;;;;5452640;26;20010;-78
2024/04/11 04:04:03;;;;;;;5.03;1.67;;;13.40;99.90;;;;;;5452634;26;20025;-79
2024/04/11 04:06:36;;;;;;;6.97;1.80;;;13.40;99.90;;;;;;5453842;26;20006;-76
2024/04/11 04:09:07;;;;;;;8.63;1.80;;;13.40;99.90;;;;;;5452689;26;20006;-78
2024/04/11 04:11:36;;;;;;;4.93;1.30;;;13.40;99.90;;;;;;5452173;26;20009;-84
2024/04/11 04:14:03;;;;;;;6.53;1.55;;;13.40;99.90;;;;;;5452781;26;20417;-89
2024/04/11 04:16:28;;;;;;;5.88;1.98;;;13.40;99.90;;;;;;5453751;26;20377;-78
2024/04/11 04:18:54;;;;;;;5.72;1.63;;;13.40;99.90;;;;;;5451723;26;19995;-77
2024/04/11 04:21:20;;;;;;;7.05;2.00;;;13.40;99.90;;;;;;5452934;26;20451;-78
2024/04/11 04:23:54;;;;;;;3.58;1.23;;;13.50;99.90;;;;;;5451954;26;20002;-80
2024/04/11 04:26:21;;;;;;;7.75;1.98;;;13.40;99.90;;;;;;5453629;26;19995;-82
2024/04/11 04:28:48;;;;;;;9.45;1.70;;;13.30;99.90;;;;;;5451499;26;20006;-77
2024/04/11 04:31:22;;;;;;;6.75;2.25;;;13.40;99.90;;;;;;5452407;26;20006;-77
2024/04/11 04:33:50;;;;;;;7.93;1.80;;;13.40;99.90;;;;;;5431113;26;19999;-78
2024/04/11 04:36:25;;;;;;;8.90;1.80;;;13.40;99.90;;;;;;5450000;26;19999;-77
2024/04/11 04:38:53;;;;;;;5.55;2.00;;;13.40;99.90;;;;;;5453020;26;19999;-77
2024/04/11 04:41:20;;;;;;;9.48;1.80;;;13.40;99.90;;;;;;5453000;26;20334;-77
2024/04/11 04:43:53;;;;;;;6.00;1.58;;;13.40;99.90;;;;;;5453548;26;20488;-77
2024/04/11 04:46:20;;;;;;;;;;;13.30;99.90;;;;;;5453640;26;20014;-77
2024/04/11 04:48:46;;;;;;;9.68;2.20;;;13.30;99.90;;;;;;5451111;26;19924;-82
2024/04/11 04:51:13;;;;;;;9.68;1.80;;;13.30;99.90;;;;;;5452394;26;20002;-81
2024/04/11 04:53:40;;;;;;;6.32;1.30;;;13.30;99.90;;;;;;5437823;26;20003;-79
2024/04/11 04:56:07;;;;;;;9.55;1.90;;;13.20;99.90;;;;;;5448881;26;20013;-79
2024/04/11 04:58:33;;;;;;;6.20;1.80;;;13.20;99.90;;;;;;5451494;26;19994;-80
2024/04/11 05:01:00;;;;;;;5.35;1.50;;;13.20;99.90;;;;;;5446227;26;20005;-80
2024/04/11 05:03:28;;;;;;;5.63;1.65;;;13.30;99.90;;;;;;5453062;26;20135;-77
2024/04/11 05:05:54;;;;;;;6.20;2.00;;;13.20;99.90;;;;;;5452903;26;19995;-76
2024/04/11 05:08:23;;;;;;;8.23;1.60;;;13.30;99.90;;;;;;5452603;26;19999;-77
2024/04/11 05:10:55;;;;;;;9.20;2.05;;;13.30;99.90;;;;;;5441591;26;20007;-77
2024/04/11 05:13:26;;;;;;;9.63;1.80;;;13.30;99.90;;;;;;5444693;26;20017;-77
2024/04/11 05:15:56;;;;;;;8.15;1.70;;;13.20;99.90;;;;;;5438264;26;20011;-82
2024/04/11 05:18:22;;;;;;;8.63;1.58;;;13.30;99.90;;;;;;5452508;26;19995;-77
2024/04/11 05:20:48;;;;;;;11.40;1.95;;;13.30;99.90;;;;;;5451998;26;20023;-79
2024/04/11 05:23:14;;;;;;;7.00;1.63;;;13.30;99.90;;;;;;5451646;26;20006;-78
2024/04/11 05:25:40;;;;;;;7.57;1.88;;;13.30;99.90;;;;;;5445085;26;20076;-83
2024/04/11 05:28:07;;;;;;;4.78;1.63;;;13.30;99.90;;;;;;5448544;26;20044;-77
2024/04/11 05:30:40;;;;;;;7.10;1.55;;;13.30;99.90;;;;;;5452248;26;20060;-78
2024/04/11 05:33:08;;;;;;;7.68;1.60;;;13.20;99.90;;;;;;5451522;26;20035;-82
2024/04/11 05:35:35;;;;;;;9.93;1.60;;;13.30;99.90;;;;;;5451679;26;20060;-78
2024/04/11 05:38:00;;;;;;;5.32;1.60;;;13.30;99.90;;;;;;5450673;26;20029;-78
2024/04/11 05:40:27;;;;;;;7.65;1.40;;;13.30;99.90;;;;;;5452234;26;19999;-77
2024/04/11 05:42:54;;;;;;;10.77;1.75;;;13.40;99.90;;;;;;5450851;26;19999;-77
2024/04/11 05:45:22;;;;;;;5.78;1.80;;;13.30;99.90;;;;;;5444431;26;20452;-77
2024/04/11 05:47:48;;;;;;;6.53;1.48;;;13.40;99.90;;;;;;5436776;26;19999;-77
2024/04/11 05:50:18;;;;;;;8.93;2.00;;;13.40;99.90;;;;;;5451636;26;19998;-77
2024/04/11 05:52:48;;;;;;;6.00;2.00;;;13.40;99.90;;;;;;5452268;26;19999;-76
2024/04/11 05:55:16;;;;;;;7.53;1.73;;;13.40;99.90;;;;;;5452328;26;20002;-76
2024/04/11 05:57:44;;;;;;;8.82;1.60;;;13.20;99.90;;;;;;5450759;26;20013;-77
2024/04/11 06:00:11;;;;;;;6.05;1.90;;;13.40;99.90;;;;;;5437970;26;20006;-79
2024/04/11 06:02:41;;;;;;;5.22;1.83;;;13.40;99.90;;;;;;5451722;26;19999;-80
2024/04/11 06:05:09;;;;;;;9.70;2.38;;;13.40;99.90;;;;;;5451993;26;20006;-83
2024/04/11 06:07:39;;;;;;;7.68;1.88;;;13.40;99.90;;;;;;5450494;26;20006;-82
2024/04/11 06:10:11;;;;;;;6.95;1.70;;;13.50;99.90;;;;;;5448907;26;20007;-80
2024/04/11 06:12:38;;;;;;;10.38;1.90;;;13.40;99.90;;;;;;5450057;26;20309;-74
2024/04/11 06:15:07;;;;;;;10.38;1.85;;;13.50;99.90;;;;;;5451199;26;20006;-77
2024/04/11 06:17:32;;;;;;;12.90;2.40;;;13.40;99.90;;;;;;5438810;26;20022;-76
2024/04/11 06:20:01;;;;;;;8.15;2.58;;;13.50;99.90;;;;;;5449655;26;20496;-80
2024/04/11 06:22:26;;;;;;;7.10;2.72;;;13.50;99.90;;;;;;5440339;26;20614;-76
2024/04/11 06:24:52;;;;;;;10.63;3.20;;;13.50;99.90;;;;;;5400490;26;20015;-76
2024/04/11 06:27:18;;;;;;;11.65;2.45;;;13.60;99.90;;;;;;5418918;26;20455;-77
2024/04/11 06:29:45;;;;;;;11.95;2.15;;;13.60;99.90;;;;;;5426529;26;20046;-80
2024/04/11 06:32:15;;;;;;;8.98;2.17;;;13.60;99.90;;;;;;5425504;26;19999;-83
2024/04/11 06:34:41;;;;;;;6.03;1.60;;;13.60;99.90;;;;;;5424611;26;19999;-77
2024/04/11 06:37:11;;;;;;;9.40;2.75;;;13.70;99.90;;;;;;5432219;26;20014;-79
2024/04/11 06:39:38;;;;;;;12.68;2.50;;;13.70;99.90;;;;;;5427689;26;19995;-78
2024/04/11 06:42:13;;;;;;;6.57;2.22;;;13.80;99.90;;;;;;5422374;26;20017;-77
2024/04/11 06:44:45;;;;;;;4.53;1.35;;;13.70;99.90;;;;;;5430780;26;20006;-75
2024/04/11 06:47:12;;;;;;;13.13;1.95;;;13.70;99.90;;;;;;5434141;26;20067;-75
2024/04/11 06:49:39;;;;;;;10.05;2.05;;;13.80;99.90;;;;;;5427745;26;20015;-75
2024/04/11 06:52:05;;;;;;;10.10;2.42;;;13.90;99.90;;;;;;5427484;26;20443;-75
2024/04/11 06:54:33;;;;;;;8.50;2.38;;;13.90;99.90;;;;;;5423174;26;20000;-75
2024/04/11 06:57:00;;;;;;;5.20;2.03;;;14.00;99.90;;;;;;5429257;26;20561;-76
2024/04/11 06:59:26;;;;;;;10.48;2.13;;;14.00;99.90;;;;;;5432399;26;20007;-75
2024/04/11 07:01:52;;;;;;;11.18;2.40;;;14.00;99.90;;;;;;5430647;26;20076;-76
2024/04/11 07:04:18;;;;;;;6.72;1.98;;;14.10;99.90;;;;;;5432001;26;20144;-77
2024/04/11 07:06:48;;;;;;;10.02;1.65;;;14.10;99.90;;;;;;5423421;26;20355;-82
2024/04/11 07:09:14;;;;;;;8.85;2.20;;;14.20;99.90;;;;;;5435077;26;20022;-80
2024/04/11 07:11:40;;;;;;;7.32;1.98;;;14.20;99.90;;;;;;5430851;26;20035;-80
2024/04/11 07:14:15;;;;;;;8.15;1.67;;;14.20;99.90;;;;;;5437333;26;20075;-77
2024/04/11 07:16:44;;;;;;;9.70;2.30;;;14.10;99.90;;;;;;5431329;26;20098;-79
2024/04/11 07:19:11;;;;;;;8.52;2.10;;;14.20;99.90;;;;;;5436406;26;20003;-79
2024/04/11 07:21:38;;;;;;;10.80;2.22;;;14.20;99.90;;;;;;5428888;26;20518;-78
2024/04/11 07:24:06;;;;;;;9.77;2.00;;;14.20;99.90;;;;;;5430574;26;20003;-81
2024/04/11 07:26:33;;;;;;;6.45;1.98;;;14.20;99.90;;;;;;5436955;26;20010;-76
2024/04/11 07:29:01;;;;;;;9.90;1.58;;;14.30;99.90;;;;;;5429245;26;20000;-81
2024/04/11 07:31:28;;;;;;;6.55;1.85;;;14.30;99.90;;;;;;5428177;26;20006;-77
2024/04/11 07:33:55;;;;;;;8.50;1.92;;;14.30;99.90;;;;;;5428747;26;20013;-77
2024/04/11 07:36:25;;;;;;;7.72;1.92;;;14.40;99.90;;;;;;5427699;26;20435;-77
2024/04/11 07:38:57;;;;;;;6.75;1.48;;;14.40;99.90;;;;;;5426900;26;20014;-80
2024/04/11 07:41:44;;;;;;;8.43;2.40;;;14.40;99.90;;;;;;5432633;26;20057;-82
2024/04/11 07:44:11;;;;;;;9.95;2.15;;;14.40;99.90;;;;;;5429692;26;20013;-76
2024/04/11 07:46:37;;;;;;;6.50;2.28;;;14.40;99.90;;;;;;5427923;26;20465;-81
2024/04/11 07:49:07;;;;;;;10.05;2.17;;;14.40;99.90;;;;;;5423590;26;20013;-81
2024/04/11 07:51:34;;;;;;;7.60;2.17;;;14.50;99.90;;;;;;5433782;26;20017;-77
2024/04/11 07:54:03;;;;;;;7.75;2.00;;;14.60;99.90;;;;;;5431271;26;20108;-78
2024/04/11 07:56:29;;;;;;;8.13;2.40;;;14.50;99.90;;;;;;5435702;26;20006;-76
2024/04/11 07:58:56;;;;;;;8.32;2.30;;;14.60;99.90;;;;;;5428444;26;20000;-78
2024/04/11 08:01:34;;;;;;;5.65;2.25;;;14.50;99.90;;;;;;5431691;26;20004;-81
2024/04/11 08:04:05;;;;;;;4.78;1.90;;;14.60;99.90;;;;;;5431110;26;20084;-77
2024/04/11 08:06:34;;;;;;;8.57;2.72;;;14.60;99.90;;;;;;5430490;26;20012;-76
2024/04/11 08:09:01;;;;;;;8.93;2.63;;;14.60;99.90;;;;;;5431848;26;20011;-77
2024/04/11 08:11:30;;;;;;;10.23;2.25;;;14.60;99.90;;;;;;5435154;26;20019;-78
2024/04/11 08:13:59;;;;;;;8.68;2.50;;;14.60;99.90;;;;;;5429825;26;19999;-81
2024/04/11 08:16:26;;;;;;;5.65;2.20;;;14.70;99.90;;;;;;5424991;26;20004;-76
2024/04/11 08:18:52;;;;;;;9.35;2.08;;;14.70;99.90;;;;;;5431505;26;20016;-75
2024/04/11 08:21:18;;;;;;;4.13;1.70;;;14.70;99.90;;;;;;5427527;26;20003;-76
2024/04/11 08:23:45;;;;;;;5.65;2.03;;;14.60;99.90;;;;;;5434909;26;20018;-83
2024/04/11 08:26:15;;;;;;;9.93;2.13;;;14.70;99.90;;;;;;5423269;26;20038;-78
2024/04/11 08:28:43;;;;;;;10.13;2.65;;;14.60;99.90;;;;;;5430524;26;20010;-76
2024/04/11 08:31:09;;;;;;;13.95;2.35;;;14.70;99.90;;;;;;5432054;26;20014;-77
2024/04/11 08:33:36;;;;;;;10.30;2.47;;;14.70;99.90;;;;;;5434865;26;20064;-82
2024/04/11 08:36:08;;;;;;;7.03;2.30;;;14.70;99.90;;;;;;5428138;26;20002;-76
2024/04/11 08:38:40;;;;;;;8.55;2.15;;;14.90;99.90;;;;;;5437880;26;20007;-76
2024/04/11 08:41:09;;;;;;;;;;;14.90;99.90;;;;;;5434866;26;19999;-77
2024/04/11 08:43:36;;;;;;;5.80;2.10;;;15.10;99.90;;;;;;5430122;26;19937;-76
2024/04/11 08:46:06;;;;;;;8.27;2.17;;;15.20;99.90;;;;;;5427640;26;20014;-75
2024/04/11 08:48:32;;;;;;;7.82;2.03;;;15.30;99.90;;;;;;5426070;26;20065;-79
2024/04/11 08:51:04;;;;;;;8.10;2.55;;;15.20;99.90;;;;;;5424699;26;19999;-76
2024/04/11 08:53:33;;;;;;;9.38;2.40;;;15.20;99.90;;;;;;5431807;26;20010;-76
2024/04/11 08:56:01;;;;;;;7.45;2.28;;;15.20;99.90;;;;;;5431887;26;19994;-75
2024/04/11 08:58:29;;;;;;;9.38;2.55;;;15.30;99.90;;;;;;5427864;26;20121;-76
2024/04/11 09:00:59;;;;;;;6.45;2.20;;;15.30;99.90;;;;;;5426226;26;20570;-77
2024/04/11 09:03:26;;;;;;;10.63;2.17;;;15.30;99.90;;;;;;5426193;26;20003;-78
2024/04/11 09:05:52;;;;;;;4.95;2.10;;;15.30;99.90;;;;;;5433885;26;20015;-79
2024/04/11 09:08:19;;;;;;;10.18;2.25;;;15.30;99.90;;;;;;5427133;26;20020;-76
2024/04/11 09:10:46;;;;;;;6.85;2.63;;;15.30;99.90;;;;;;5425318;26;20022;-76
2024/04/11 09:13:17;;;;;;;4.88;2.03;;;15.30;99.90;;;;;;5426192;26;20005;-77
2024/04/11 09:15:43;;;;;;;5.93;2.70;;;15.30;99.90;;;;;;5428304;26;20452;-77
2024/04/11 09:18:20;;;;;;;10.45;2.40;;;15.30;99.90;;;;;;5429021;26;20010;-78
2024/04/11 09:20:46;;;;;;;6.85;2.20;;;15.30;99.90;;;;;;5426158;26;20010;-76
2024/04/11 09:23:15;;;;;;;9.82;2.97;;;15.30;99.90;;;;;;5430422;26;20475;-76
2024/04/11 09:25:41;;;;;;;9.68;3.15;;;15.30;99.90;;;;;;5430296;26;20487;-76
2024/04/11 09:28:11;;;;;;;8.85;2.72;;;15.20;99.90;;;;;;5426228;26;20003;-75
2024/04/11 09:30:39;;;;;;;12.00;2.88;;;15.20;99.90;;;;;;5421979;26;20017;-78
2024/04/11 09:33:14;;;;;;;6.85;2.60;;;15.20;99.90;;;;;;5433485;26;19998;-77
2024/04/11 09:35:46;;;;;;;9.30;2.35;;;15.30;99.90;;;;;;5426038;26;20006;-76
2024/04/11 09:38:13;;;;;;;5.20;2.45;;;15.40;99.90;;;;;;5432081;26;19999;-75
2024/04/11 09:40:50;;;;;;;8.38;2.97;;;15.30;99.90;;;;;;5433254;26;20003;-78
2024/04/11 09:43:17;;;;;;;9.70;2.42;;;15.30;99.90;;;;;;5422197;26;20007;-76
2024/04/11 09:45:50;;;;;;;10.93;2.80;;;15.40;99.90;;;;;;5427421;26;19996;-75
2024/04/11 09:48:21;;;;;;;10.88;2.83;;;15.30;99.90;;;;;;5425178;26;20010;-76
2024/04/11 09:50:48;;;;;;;8.82;3.15;;;15.40;99.90;;;;;;5430638;26;20011;-75
2024/04/11 09:53:26;;;;;;;8.13;2.90;;;15.30;99.90;;;;;;5435388;26;20083;-76
2024/04/11 09:56:02;;;;;;;11.10;3.05;;;15.40;99.90;;;;;;5428908;26;20009;-76
2024/04/11 09:58:29;;;;;;;10.60;2.95;;;15.50;99.90;;;;;;5425687;26;19999;-75
2024/04/11 10:01:04;;;;;;;9.30;3.40;;;15.60;99.90;;;;;;5437052;26;19999;-75
2024/04/11 10:03:31;;;;;;;9.05;2.70;;;15.70;99.90;;;;;;5436074;26;20011;-75
2024/04/11 10:06:04;;;;;;;7.65;2.92;;;15.80;99.90;;;;;;5432224;26;20018;-75
2024/04/11 10:08:36;;;;;;;10.02;2.67;;;15.80;99.90;;;;;;5436641;26;20013;-75
2024/04/11 10:11:03;;;;;;;9.32;2.80;;;16.00;99.90;;;;;;5430390;26;19999;-76
2024/04/11 10:13:38;;;;;;;6.22;2.47;;;16.30;99.90;;;;;;5426428;26;19995;-76
2024/04/11 10:16:21;;;;;;;8.20;2.70;;;16.60;99.90;;;;;;5421394;26;20014;-76
2024/04/11 10:19:05;;;;;;;;;;;16.70;99.90;;;;;;5432065;26;20004;-76
2024/04/11 10:21:32;;;;;;;8.05;2.97;;;16.60;99.90;;;;;;5429678;26;19929;-76
2024/04/11 10:24:13;;;;;;;11.35;3.05;;;16.70;99.90;;;;;;5433080;26;20007;-76
2024/04/11 10:26:42;;;;;;;6.68;2.50;;;16.80;99.90;;;;;;5426933;26;20003;-76
2024/04/11 10:29:18;;;;;;;6.18;2.90;;;16.90;99.90;;;;;;5431325;26;20003;-76
2024/04/11 10:31:44;;;;;;;6.95;2.70;;;17.20;99.90;;;;;;5431647;26;20049;-77
2024/04/11 10:34:13;;;;;;;4.50;2.35;;;17.40;99.90;;;;;;5432836;26;20451;-80
2024/04/11 10:36:42;;;;;;;6.47;2.75;;;17.50;99.90;;;;;;5427544;26;20030;-77
2024/04/11 10:39:09;;;;;;;6.15;2.60;;;17.50;99.90;;;;;;5432626;26;20018;-76
2024/04/11 10:41:40;;;;;;;9.55;2.38;;;17.40;99.90;;;;;;5430623;26;19999;-77
2024/04/11 10:44:06;;;;;;;6.03;2.30;;;17.40;99.90;;;;;;5429228;26;19999;-77
2024/04/11 10:46:33;;;;;;;8.10;2.50;;;17.40;99.90;;;;;;5425193;26;20317;-76
2024/04/11 10:49:15;;;;;;;5.50;2.83;;;17.30;99.90;;;;;;5429590;26;20373;-77
2024/04/11 10:51:42;;;;;;;5.70;2.63;;;17.30;99.90;;;;;;5430632;26;20060;-76
2024/04/11 10:54:09;;;;;;;17.95;3.40;;;17.10;99.90;;;;;;5435391;26;20003;-76
2024/04/11 10:56:43;;;;;;;11.00;2.80;;;17.00;99.90;;;;;;5430450;26;20013;-79
2024/04/11 10:59:34;;;;;;;6.78;2.65;;;17.00;99.90;;;;;;5422490;26;19996;-76
2024/04/11 11:02:08;;;;;;;7.70;3.25;;;17.00;99.90;;;;;;5428466;26;19995;-79
2024/04/11 11:04:34;;;;;;;4.10;2.53;;;17.10;99.90;;;;;;5429201;26;20019;-74
2024/04/11 11:07:10;;;;;;;5.82;3.15;;;17.10;99.90;;;;;;5429810;26;20082;-80
2024/04/11 11:09:42;;;;;;;5.68;2.92;;;17.10;99.90;;;;;;5468515;26;19996;-76
2024/04/11 11:12:15;;;;;;;4.53;2.85;;;17.10;99.90;;;;;;5432806;26;20017;-77
2024/04/11 11:14:41;;;;;;;4.22;2.85;;;17.10;99.90;;;;;;5432827;26;20019;-77
2024/04/11 11:17:17;;;;;;;6.97;3.83;;;17.10;99.90;;;;;;5432561;26;20436;-78
2024/04/11 11:19:44;;;;;;;4.80;3.15;;;17.00;99.90;;;;;;5437141;26;19999;-76
2024/04/11 11:22:10;;;;;;;11.40;3.67;;;17.00;99.90;;;;;;5438068;26;20022;-75
2024/04/11 11:24:37;;;;;;;6.07;3.50;;;17.00;99.90;;;;;;5438288;26;19995;-75
2024/04/11 11:27:05;;;;;;;5.82;3.30;;;16.90;99.90;;;;;;5438965;26;20017;-77
2024/04/11 11:29:31;;;;;;;7.28;4.07;;;17.00;99.90;;;;;;5440926;26;20397;-75
2024/04/11 11:32:01;;;;;;;7.55;3.67;;;16.90;99.90;;;;;;5434608;26;19996;-76
2024/04/11 11:34:39;;;;;;;12.45;4.00;;;17.00;99.90;;;;;;5435380;26;20080;-75
2024/04/11 11:37:12;;;;;;;6.35;3.55;;;17.00;99.90;;;;;;5427190;26;20014;-75
2024/04/11 11:39:42;;;;;;;6.25;3.08;;;17.00;99.90;;;;;;5427183;26;20472;-75
2024/04/11 11:42:26;;;;;;;5.93;3.97;;;17.00;99.90;;;;;;5432352;26;20011;-75
2024/04/11 11:47:33;;;;;;;7.70;2.92;;;17.00;99.90;;;;;;5432828;26;19999;-75
2024/04/11 11:50:21;;;;;;;8.27;4.65;;;17.00;99.90;;;;;;5437810;26;20006;-75
2024/04/11 11:52:50;;;;;;;5.78;3.47;;;17.00;99.90;;;;;;5428273;26;20021;-75
2024/04/11 11:55:17;;;;;;;6.15;3.17;;;17.00;99.90;;;;;;5425806;26;20339;-75
2024/04/11 11:57:56;;;;;;;5.47;3.20;;;17.10;99.90;;;;;;5429485;26;20015;-76
2024/04/11 12:00:26;;;;;;;7.40;3.50;;;17.00;99.90;;;;;;5432005;26;19995;-75
2024/04/11 12:02:55;;;;;;;8.13;3.30;;;17.00;99.90;;;;;;5420948;26;19996;-76
2024/04/11 12:05:33;;;;;;;6.32;2.60;;;17.00;99.90;;;;;;5471903;26;20003;-75
2024/04/11 12:08:09;;;;;;;5.15;3.08;;;17.00;99.90;;;;;;5427052;26;20003;-75
2024/04/11 12:13:35;;;;;;;6.95;2.75;;;17.00;99.90;;;;;;5431618;26;20035;-74
2024/04/11 12:16:03;;;;;;;6.72;3.22;;;17.00;99.90;;;;;;5432209;26;20339;-76
2024/04/11 12:18:30;;;;;;;5.78;2.65;;;17.10;99.90;;;;;;5430787;26;20013;-75
2024/04/11 12:20:57;;;;;;;4.53;2.90;;;17.20;99.90;;;;;;5430825;26;20467;-75
2024/04/11 12:23:23;;;;;;;9.60;3.45;;;17.10;99.90;;;;;;5423209;26;20000;-75
2024/04/11 12:25:50;;;;;;;7.78;3.55;;;17.10;99.90;;;;;;5435198;26;19999;-75
2024/04/11 12:28:19;;;;;;;7.63;3.75;;;17.20;99.90;;;;;;5432357;26;19999;-75
2024/04/11 12:30:46;;;;;;;7.00;3.22;;;17.20;99.90;;;;;;5433256;26;20014;-75
2024/04/11 12:33:12;;;;;;;7.47;2.90;;;17.30;99.90;;;;;;5428286;26;20019;-75
2024/04/11 12:35:54;;;;;;;8.88;3.67;;;17.20;99.90;;;;;;5428767;26;20067;-76
2024/04/11 12:38:29;;;;;;;5.32;3.22;;;17.20;99.90;;;;;;5433588;26;20435;-76
2024/04/11 12:41:01;;;;;;;7.15;3.47;;;17.40;99.90;;;;;;5426979;26;20096;-77
2024/04/11 12:43:28;;;;;;;5.85;3.70;;;17.30;99.90;;;;;;5421893;26;20015;-76
2024/04/11 12:45:58;;;;;;;5.35;3.67;;;17.30;99.90;;;;;;5424163;26;20050;-78
2024/04/11 12:48:26;;;;;;;10.10;3.90;;;17.30;99.90;;;;;;5431735;26;20003;-76
2024/04/11 12:50:55;;;;;;;5.50;3.53;;;17.40;99.90;;;;;;5415776;26;20117;-74
2024/04/11 12:53:21;;;;;;;8.10;3.85;;;17.30;99.90;;;;;;5435522;26;20072;-75
2024/04/11 12:55:58;;;;;;;4.00;3.53;;;17.20;99.90;;;;;;5430319;26;20018;-75
2024/04/11 12:58:25;;;;;;;7.78;3.72;;;17.20;99.90;;;;;;5423709;26;20044;-77